עמוד ראשי
METAR-TAF:

METAR-TAF

שדות תעופה :

Inverness, סקוטלנד

קו רוחב: 57-32N, קו אורך: 004-03W, גובה: 9מטר

תצפית מזג אוויר נוכחית

הדו"ח נערך לפני 25דקות, בשעה 15:20 UTC
רוח 13קשר מכיוון דרום-מערב
טמפרטורת 22 צלסיוס
לחות 65%
לחץ 1013 hPa
ראות 10 קילומטר או יותר
מעט עננים בגובה 3200רגל
עננים פזורים בגובה 4200רגל

METAR: EGPE 241520Z 23013KT 9999 FEW032 SCT042 22/15 Q1013

זמן: 16:45 (15:45 UTC)

תחזית

הדו"ח נערך לפני 1 שעות ו 44דקות, בשעה 14:01 UTC
תחזית בתוקף מ 24 ב 15 UTC עד 24 ב 24 UTC
רוח 9קשר מכיוון מערב/דרום-מערב
ראות 10 קילומטר או יותר
מעט עננים בגובה 3500רגל
הסתברות 30% :
זמנית מ -
24 ב 22 UTC עד 24 ב 24 UTC
ראות: 6000מטר
גשם קל,

TAF: EGPE 241401Z 2415/2424 24009KT 9999 FEW035 PROB30 TEMPO 2422/2424 6000 -RA

תצפיות ותחזיות מזג אוויר לגבי יותר מ- 4,000 שדות תעופה ברחבי העולם. דוחות METAR ו- TAF.

התחנות הזמינות מסומנות בנקודות צהובות ואדומות על גבי המפה.

העבר את העכבר לנקודה הצבעונית על מנת לראות את שם התחנה.

לאחר מכן, לחץ כדי לראות את תוכן ואת תחזיות מזג האוויר.

כדי לשנות את המפה: לחץ על הכפתורים הירוקים עם הפלוס השחור כדי להתקרב; על הכפתור הירוק עם המקף כדי להתרחק; או בחיצים הירוקים למפות סמוכות.


METAR-TAF: